createdAt,value
2019-01-30T00:03:07.359Z,2.30
2019-01-30T00:05:47.968Z,2.30
2019-01-30T00:08:29.405Z,2.30
2019-01-30T00:16:47.439Z,2.20
2019-01-30T00:19:28.240Z,1.90
2019-01-30T00:22:08.856Z,1.80
2019-01-30T00:27:57.763Z,1.70
2019-01-30T00:30:37.265Z,1.60
2019-01-30T00:33:17.984Z,1.50
2019-01-30T00:35:57.716Z,1.50
2019-01-30T00:38:38.765Z,1.50
2019-01-30T00:41:19.892Z,1.40
2019-01-30T00:44:01.217Z,1.40
2019-01-30T00:46:42.458Z,1.40
2019-01-30T00:49:24.021Z,1.40
2019-01-30T00:52:05.133Z,1.40
2019-01-30T00:54:45.843Z,1.40
2019-01-30T00:57:26.452Z,1.30
2019-01-30T01:00:14.417Z,1.30
2019-01-30T01:02:50.269Z,1.30
2019-01-30T01:05:30.902Z,1.30
2019-01-30T01:08:10.571Z,1.30
2019-01-30T01:10:51.968Z,1.30
2019-01-30T01:13:33.453Z,1.30
2019-01-30T01:16:14.883Z,1.30
2019-01-30T01:18:56.463Z,1.30
2019-01-30T01:21:37.453Z,1.30
2019-01-30T01:24:18.812Z,1.30
2019-01-30T01:27:00.317Z,1.30
2019-01-30T01:29:41.414Z,1.20
2019-01-30T01:32:22.119Z,1.30
2019-01-30T01:35:02.856Z,1.30
2019-01-30T01:37:42.807Z,1.30
2019-01-30T01:43:36.765Z,1.30
2019-01-30T01:46:18.040Z,1.30
2019-01-30T01:48:59.032Z,1.40
2019-01-30T01:51:39.945Z,1.40
2019-01-30T01:54:21.514Z,1.40
2019-01-30T01:57:02.858Z,1.40
2019-01-30T01:59:44.162Z,1.40
2019-01-30T02:02:25.366Z,1.40
2019-01-30T02:05:06.323Z,1.30
2019-01-30T02:07:47.174Z,1.30
2019-01-30T02:10:28.303Z,1.30
2019-01-30T02:13:10.045Z,1.30
2019-01-30T02:15:51.424Z,1.30
2019-01-30T02:18:33.015Z,1.20
2019-01-30T02:21:12.674Z,1.20
2019-01-30T02:24:01.280Z,1.20
2019-01-30T02:26:42.526Z,1.20
2019-01-30T02:29:23.573Z,1.20
2019-01-30T02:32:05.048Z,1.20
2019-01-30T02:34:46.505Z,1.20
2019-01-30T02:37:27.540Z,1.20
2019-01-30T02:42:48.998Z,1.10
2019-01-30T02:48:42.933Z,1.00
2019-01-30T02:51:24.245Z,1.10
2019-01-30T02:54:05.072Z,1.20
2019-01-30T02:56:46.372Z,1.20
2019-01-30T02:59:27.946Z,1.20
2019-01-30T03:02:28.178Z,1.20
2019-01-30T03:05:09.790Z,1.30
2019-01-30T03:07:51.134Z,1.30
2019-01-30T03:10:32.821Z,1.30
2019-01-30T03:13:14.156Z,1.30
2019-01-30T03:15:55.171Z,1.40
2019-01-30T03:18:36.415Z,1.40
2019-01-30T03:21:17.375Z,1.40
2019-01-30T03:23:58.800Z,1.40
2019-01-30T03:26:40.110Z,1.40
2019-01-30T03:29:20.201Z,1.40
2019-01-30T03:32:01.328Z,1.40
2019-01-30T03:34:42.687Z,1.40
2019-01-30T03:37:22.355Z,1.50
2019-01-30T03:43:19.031Z,1.50
2019-01-30T03:46:00.268Z,1.50
2019-01-30T03:48:41.239Z,1.40
2019-01-30T03:51:21.763Z,1.40
2019-01-30T03:56:40.849Z,1.40
2019-01-30T03:59:21.690Z,1.40
2019-01-30T04:02:02.517Z,1.40
2019-01-30T04:04:44.009Z,1.40
2019-01-30T04:07:24.661Z,1.40
2019-01-30T04:10:06.092Z,1.40
2019-01-30T04:12:47.636Z,1.50
2019-01-30T04:15:28.905Z,1.50
2019-01-30T04:18:09.558Z,1.50
2019-01-30T04:20:51.047Z,1.40
2019-01-30T04:23:31.724Z,1.50
2019-01-30T04:26:11.136Z,1.50
2019-01-30T04:28:52.489Z,1.40
2019-01-30T04:31:38.291Z,1.40
2019-01-30T04:34:16.621Z,1.40
2019-01-30T04:36:57.744Z,1.30
2019-01-30T04:39:39.173Z,1.30
2019-01-30T04:42:19.034Z,1.30
2019-01-30T04:45:00.097Z,1.20
2019-01-30T04:47:41.483Z,1.20
2019-01-30T04:50:20.948Z,1.10
2019-01-30T04:53:09.486Z,1.10
2019-01-30T04:55:50.253Z,1.10
2019-01-30T04:58:31.662Z,1.00
2019-01-30T05:01:11.176Z,0.90
2019-01-30T05:06:59.698Z,0.90
2019-01-30T05:09:40.894Z,0.90
2019-01-30T05:12:22.434Z,0.80
2019-01-30T05:15:03.634Z,0.80
2019-01-30T05:17:44.851Z,0.80
2019-01-30T05:20:25.448Z,0.70
2019-01-30T05:23:06.722Z,0.80
2019-01-30T05:25:47.445Z,0.70
2019-01-30T05:28:28.623Z,0.70
2019-01-30T05:31:09.985Z,0.70
2019-01-30T05:33:50.614Z,0.70
2019-01-30T05:36:31.311Z,0.80
2019-01-30T05:39:12.501Z,0.80
2019-01-30T05:41:53.220Z,0.80
2019-01-30T05:44:34.343Z,0.80
2019-01-30T05:47:15.458Z,0.80
2019-01-30T05:49:56.431Z,0.80
2019-01-30T05:52:37.749Z,0.80
2019-01-30T05:55:18.366Z,0.80
2019-01-30T06:01:08.294Z,0.90
2019-01-30T06:03:49.738Z,0.80
2019-01-30T06:06:31.045Z,0.80
2019-01-30T06:09:12.534Z,0.80
2019-01-30T06:11:52.082Z,0.80
2019-01-30T06:14:40.569Z,0.70
2019-01-30T06:17:21.759Z,0.70
2019-01-30T06:20:03.112Z,0.60
2019-01-30T08:39:28.833Z,0.60
2019-01-30T08:42:10.383Z,1.90
2019-01-30T08:47:49.936Z,2.00
2019-01-30T09:09:08.829Z,2.20
2019-01-30T09:11:50.021Z,3.20
2019-01-30T09:14:31.121Z,3.30
2019-01-30T09:17:11.274Z,3.50
2019-01-30T09:22:51.634Z,3.60
2019-01-30T09:25:32.560Z,3.90
2019-01-30T09:28:13.920Z,4.00
2019-01-30T09:30:54.646Z,4.10
2019-01-30T09:33:36.314Z,4.20
2019-01-30T09:36:17.308Z,4.20
2019-01-30T09:38:57.833Z,4.30
2019-01-30T09:41:37.431Z,4.40
2019-01-30T09:44:16.920Z,4.50
2019-01-30T09:53:10.948Z,4.70
2019-01-30T09:55:50.524Z,4.80
2019-01-30T09:58:31.371Z,4.80
2019-01-30T10:01:12.082Z,4.80
2019-01-30T10:03:53.237Z,4.90
2019-01-30T10:06:32.898Z,4.90
2019-01-30T10:09:13.999Z,4.90
2019-01-30T10:11:54.978Z,4.90
2019-01-30T10:14:35.735Z,5.00
2019-01-30T10:17:16.533Z,5.00
2019-01-30T10:19:57.774Z,5.00
2019-01-30T10:22:38.949Z,5.00
2019-01-30T10:25:19.637Z,5.00
2019-01-30T10:28:00.735Z,5.00
2019-01-30T10:30:41.489Z,4.90
2019-01-30T10:33:22.543Z,4.90
2019-01-30T10:36:03.415Z,5.00
2019-01-30T10:38:44.383Z,5.00
2019-01-30T10:41:25.895Z,5.00
2019-01-30T10:44:07.409Z,5.00
2019-01-30T10:46:47.991Z,5.00
2019-01-30T10:49:28.777Z,5.00
2019-01-30T10:52:10.185Z,5.00
2019-01-30T10:54:49.885Z,5.00
2019-01-30T10:57:30.525Z,5.00
2019-01-30T11:00:17.595Z,5.00
2019-01-30T11:02:58.548Z,5.10
2019-01-30T11:05:38.083Z,5.10
2019-01-30T11:08:18.835Z,5.10
2019-01-30T11:11:07.561Z,5.10
2019-01-30T11:13:42.975Z,5.10
2019-01-30T11:16:23.850Z,5.10
2019-01-30T11:19:04.792Z,5.20
2019-01-30T11:35:04.992Z,5.20
2019-01-30T11:37:46.508Z,5.30
2019-01-30T11:40:26.403Z,5.30
2019-01-30T11:43:14.874Z,5.30
2019-01-30T11:45:55.865Z,5.30
2019-01-30T11:48:36.476Z,5.30
2019-01-30T11:51:18.935Z,5.30
2019-01-30T11:53:59.744Z,5.40
2019-01-30T11:56:41.197Z,5.30
2019-01-30T11:59:22.487Z,5.40
2019-01-30T12:02:03.262Z,5.40
2019-01-30T12:04:44.310Z,5.40
2019-01-30T12:07:25.474Z,5.40
2019-01-30T12:10:06.733Z,5.40
2019-01-30T12:12:47.535Z,5.40
2019-01-30T12:21:21.479Z,5.50
2019-01-30T12:24:02.505Z,5.60
2019-01-30T12:26:43.565Z,5.70
2019-01-30T12:29:24.728Z,5.70
2019-01-30T12:32:05.333Z,5.70
2019-01-30T12:34:46.168Z,5.70
2019-01-30T12:37:25.844Z,5.80
2019-01-30T12:40:07.059Z,5.80
2019-01-30T12:42:47.686Z,5.90
2019-01-30T12:45:28.987Z,6.00
2019-01-30T12:48:10.863Z,6.00
2019-01-30T12:50:52.252Z,6.00
2019-01-30T12:56:15.256Z,6.00
2019-01-30T12:58:55.989Z,6.10
2019-01-30T13:01:36.894Z,6.10
2019-01-30T13:04:16.423Z,6.20
2019-01-30T13:06:57.675Z,6.20
2019-01-30T13:09:39.286Z,6.20
2019-01-30T13:12:19.920Z,6.20
2019-01-30T13:15:00.609Z,6.20
2019-01-30T13:17:41.818Z,6.30
2019-01-30T13:20:23.478Z,6.30
2019-01-30T13:23:04.541Z,6.20
2019-01-30T13:25:46.931Z,6.30
2019-01-30T13:28:28.435Z,6.30
2019-01-30T13:31:09.840Z,6.30
2019-01-30T13:33:50.831Z,6.40
2019-01-30T13:36:32.330Z,6.40
2019-01-30T13:39:13.442Z,6.30
2019-01-30T13:41:54.968Z,6.30
2019-01-30T13:44:35.955Z,6.30
2019-01-30T13:47:17.299Z,6.30
2019-01-30T13:49:58.398Z,6.30
2019-01-30T13:52:40.016Z,6.30
2019-01-30T13:55:21.279Z,6.30
2019-01-30T13:58:02.564Z,6.20
2019-01-30T14:00:43.649Z,6.20
2019-01-30T14:03:24.367Z,6.20
2019-01-30T14:06:05.756Z,6.20
2019-01-30T14:08:46.354Z,6.20
2019-01-30T14:11:27.736Z,6.10
2019-01-30T14:14:09.171Z,6.10
2019-01-30T14:16:50.754Z,6.10
2019-01-30T14:19:31.599Z,6.10
2019-01-30T14:22:13.036Z,6.10
2019-01-30T14:24:53.386Z,6.10
2019-01-30T14:27:34.591Z,6.10
2019-01-30T14:30:15.296Z,6.10
2019-01-30T14:32:54.775Z,6.10
2019-01-30T14:38:34.666Z,6.10
2019-01-30T14:41:14.180Z,6.00
2019-01-30T14:43:55.289Z,6.00
2019-01-30T14:46:36.694Z,6.00
2019-01-30T14:49:17.569Z,6.00
2019-01-30T14:51:59.126Z,6.00
2019-01-30T14:54:40.588Z,6.00
2019-01-30T14:57:21.475Z,6.00
2019-01-30T15:00:02.122Z,6.00
2019-01-30T15:02:43.554Z,6.00
2019-01-30T15:05:24.919Z,6.00
2019-01-30T15:08:06.367Z,6.00
2019-01-30T15:10:45.963Z,5.90
2019-01-30T15:16:39.984Z,5.90
2019-01-30T15:19:21.363Z,5.80
2019-01-30T15:22:02.571Z,5.80
2019-01-30T15:24:43.716Z,5.80
2019-01-30T15:27:25.266Z,5.80
2019-01-30T15:30:05.844Z,5.80
2019-01-30T15:32:46.477Z,5.80
2019-01-30T15:35:33.577Z,5.80
2019-01-30T15:38:11.111Z,5.80
2019-01-30T15:40:51.905Z,5.80
2019-01-30T15:43:35.340Z,5.70
2019-01-30T15:46:16.462Z,5.70
2019-01-30T15:48:57.668Z,5.70
2019-01-30T15:51:38.800Z,5.60
2019-01-30T15:54:20.095Z,5.60
2019-01-30T15:57:01.417Z,5.60
2019-01-30T15:59:42.288Z,5.50
2019-01-30T16:02:22.865Z,5.50
2019-01-30T16:05:04.265Z,5.40
2019-01-30T16:07:44.943Z,5.40
2019-01-30T16:10:26.476Z,5.30
2019-01-30T16:13:06.185Z,5.20
2019-01-30T16:15:47.359Z,5.20
2019-01-30T16:18:28.886Z,5.20
2019-01-30T16:21:09.845Z,5.10
2019-01-30T16:23:50.929Z,5.00
2019-01-30T16:26:31.787Z,5.00
2019-01-30T16:29:12.562Z,4.90
2019-01-30T16:31:54.145Z,4.90
2019-01-30T16:34:34.790Z,4.80
2019-01-30T16:37:16.073Z,4.70
2019-01-30T16:39:57.012Z,4.70
2019-01-30T16:42:38.279Z,4.70
2019-01-30T16:45:18.813Z,4.60
2019-01-30T16:47:59.355Z,4.60
2019-01-30T16:50:40.871Z,4.60
2019-01-30T16:53:22.224Z,4.60
2019-01-30T16:56:03.139Z,4.50
2019-01-30T16:58:43.766Z,4.50
2019-01-30T18:11:50.630Z,4.50
2019-01-30T18:14:32.185Z,3.90
2019-01-30T18:17:13.018Z,3.90
2019-01-30T18:19:54.182Z,3.80
2019-01-30T18:22:35.733Z,3.90
2019-01-30T18:25:17.081Z,3.90
2019-01-30T18:27:58.342Z,3.80
2019-01-30T18:30:39.773Z,3.80
2019-01-30T18:33:20.878Z,3.80
2019-01-30T18:36:02.523Z,3.80
2019-01-30T18:38:43.838Z,3.80
2019-01-30T18:41:25.300Z,3.80
2019-01-30T18:44:06.672Z,3.80
2019-01-30T18:46:47.620Z,3.80
2019-01-30T18:49:28.959Z,3.70
2019-01-30T18:52:09.612Z,3.70
2019-01-30T18:54:50.644Z,3.70
2019-01-30T18:57:32.176Z,3.70
2019-01-30T19:00:12.892Z,3.70
2019-01-30T19:02:55.829Z,3.70
2019-01-30T19:05:36.346Z,3.70
2019-01-30T19:08:16.470Z,3.60
2019-01-30T19:10:57.439Z,3.60
2019-01-30T19:13:39.598Z,3.60
2019-01-30T19:16:20.350Z,3.60
2019-01-30T19:19:01.603Z,3.60
2019-01-30T19:21:42.877Z,3.60
2019-01-30T19:24:24.065Z,3.60
2019-01-30T19:27:04.869Z,3.60
2019-01-30T19:29:46.436Z,3.60
2019-01-30T19:32:27.766Z,3.60
2019-01-30T19:35:08.836Z,3.60
2019-01-30T19:37:49.501Z,3.60
2019-01-30T19:40:30.569Z,3.60
2019-01-30T19:43:11.499Z,3.60
2019-01-30T19:45:51.026Z,3.60
2019-01-30T19:48:32.396Z,3.70
2019-01-30T19:51:12.990Z,3.70
2019-01-30T19:53:53.683Z,3.70
2019-01-30T19:56:35.174Z,3.70
2019-01-30T19:59:17.621Z,3.70
2019-01-30T20:01:59.029Z,3.70
2019-01-30T20:04:38.572Z,3.70
2019-01-30T20:10:28.596Z,3.80
2019-01-30T20:13:10.049Z,3.80
2019-01-30T20:15:51.159Z,3.80
2019-01-30T20:18:31.695Z,3.90
2019-01-30T20:21:13.265Z,3.90
2019-01-30T20:23:53.990Z,3.90
2019-01-30T20:26:35.115Z,3.90
2019-01-30T20:29:15.625Z,3.90
2019-01-30T20:31:56.274Z,3.90
2019-01-30T20:34:37.403Z,4.00
2019-01-30T20:37:25.825Z,4.00
2019-01-30T20:40:00.878Z,4.00
2019-01-30T20:42:41.520Z,4.00
2019-01-30T20:45:33.072Z,4.00
2019-01-30T20:48:04.658Z,4.00
2019-01-30T20:50:46.182Z,4.00
2019-01-30T20:53:27.363Z,4.00
2019-01-30T20:56:07.957Z,4.10
2019-01-30T20:58:48.909Z,4.10
2019-01-30T21:01:30.150Z,4.10
2019-01-30T21:04:10.901Z,4.00
2019-01-30T21:06:52.098Z,4.10
2019-01-30T21:09:33.203Z,4.00
2019-01-30T21:12:14.552Z,4.10
2019-01-30T21:14:55.813Z,4.10
2019-01-30T21:17:36.565Z,4.10
2019-01-30T21:20:18.083Z,4.10
2019-01-30T21:22:59.526Z,4.10
2019-01-30T21:25:39.869Z,4.10
2019-01-30T21:31:28.082Z,4.10
2019-01-30T21:34:08.660Z,4.10
2019-01-30T21:36:49.295Z,4.10
2019-01-30T21:39:30.109Z,4.10
2019-01-30T21:42:11.614Z,4.00
2019-01-30T21:44:52.572Z,4.00
2019-01-30T21:47:33.169Z,4.00
2019-01-30T21:50:14.670Z,4.00
2019-01-30T21:52:55.897Z,3.90
2019-01-30T21:55:37.175Z,3.90
2019-01-30T21:58:18.103Z,3.90
2019-01-30T22:00:59.494Z,3.80
2019-01-30T22:03:40.838Z,3.80
2019-01-30T22:06:22.150Z,3.80
2019-01-30T22:09:03.826Z,3.80
2019-01-30T22:11:44.885Z,3.70
2019-01-30T22:14:25.657Z,3.70
2019-01-30T22:17:06.306Z,3.60
2019-01-30T22:19:47.516Z,3.60
2019-01-30T22:22:29.443Z,3.60
2019-01-30T22:25:20.010Z,3.60
2019-01-30T22:27:53.181Z,3.60
2019-01-30T22:30:34.715Z,3.50
2019-01-30T22:33:14.947Z,3.60
2019-01-30T22:35:55.604Z,3.60
2019-01-30T22:38:36.949Z,3.60
2019-01-30T22:41:17.700Z,3.60
2019-01-30T22:43:59.002Z,3.60
2019-01-30T22:46:40.287Z,3.60
2019-01-30T22:49:21.643Z,3.50
2019-01-30T22:52:02.529Z,3.50
2019-01-30T22:54:43.779Z,3.50
2019-01-30T22:57:24.429Z,3.50
2019-01-30T23:00:05.593Z,3.50
2019-01-30T23:02:47.046Z,3.50
2019-01-30T23:05:28.387Z,3.50
2019-01-30T23:08:09.910Z,3.50
2019-01-30T23:10:51.244Z,3.50
2019-01-30T23:13:32.619Z,3.50
2019-01-30T23:16:14.128Z,3.50
2019-01-30T23:18:55.731Z,3.50
2019-01-30T23:21:37.010Z,3.40
2019-01-30T23:24:41.695Z,3.50
2019-01-30T23:27:49.377Z,3.40
2019-01-30T23:30:30.345Z,3.40
2019-01-30T23:33:11.087Z,3.40
2019-01-30T23:35:51.820Z,3.40
2019-01-30T23:38:52.572Z,3.40
2019-01-30T23:41:33.651Z,3.40
2019-01-30T23:44:14.893Z,3.40
2019-01-30T23:46:56.468Z,3.40
2019-01-30T23:49:37.711Z,3.30
2019-01-30T23:52:19.264Z,3.30
2019-01-30T23:55:04.755Z,3.30
2019-01-30T23:57:45.436Z,3.30
